sensor_id;sensor_type;location;lat;lon;timestamp;P1;durP1;ratioP1;P2;durP2;ratioP2
60014;SDS011;45867;52.480;6.056;2023-12-07T00:02:20;20.80;;;10.82;;
60014;SDS011;45867;52.480;6.056;2023-12-07T00:04:51;23.13;;;10.30;;
60014;SDS011;45867;52.480;6.056;2023-12-07T00:07:20;25.52;;;11.18;;
60014;SDS011;45867;52.480;6.056;2023-12-07T00:09:53;23.25;;;10.18;;
60014;SDS011;45867;52.480;6.056;2023-12-07T00:12:20;22.48;;;11.23;;
60014;SDS011;45867;52.480;6.056;2023-12-07T00:14:56;16.90;;;7.47;;
60014;SDS011;45867;52.480;6.056;2023-12-07T00:17:22;19.73;;;11.07;;
60014;SDS011;45867;52.480;6.056;2023-12-07T00:19:50;25.02;;;10.68;;
60014;SDS011;45867;52.480;6.056;2023-12-07T00:22:21;18.98;;;9.80;;
60014;SDS011;45867;52.480;6.056;2023-12-07T00:24:48;19.55;;;8.70;;
60014;SDS011;45867;52.480;6.056;2023-12-07T00:27:15;21.77;;;9.73;;
60014;SDS011;45867;52.480;6.056;2023-12-07T00:29:41;22.73;;;11.35;;
60014;SDS011;45867;52.480;6.056;2023-12-07T00:32:08;20.45;;;10.10;;
60014;SDS011;45867;52.480;6.056;2023-12-07T00:34:36;29.02;;;10.80;;
60014;SDS011;45867;52.480;6.056;2023-12-07T00:37:02;22.48;;;10.02;;
60014;SDS011;45867;52.480;6.056;2023-12-07T00:39:29;19.80;;;9.70;;
60014;SDS011;45867;52.480;6.056;2023-12-07T00:41:56;23.30;;;10.38;;
60014;SDS011;45867;52.480;6.056;2023-12-07T00:44:28;20.30;;;11.45;;
60014;SDS011;45867;52.480;6.056;2023-12-07T00:46:58;21.83;;;10.95;;
60014;SDS011;45867;52.480;6.056;2023-12-07T00:49:25;20.98;;;10.00;;
60014;SDS011;45867;52.480;6.056;2023-12-07T00:51:52;20.20;;;10.13;;
60014;SDS011;45867;52.480;6.056;2023-12-07T00:54:18;24.13;;;10.45;;
60014;SDS011;45867;52.480;6.056;2023-12-07T00:56:45;22.30;;;9.70;;
60014;SDS011;45867;52.480;6.056;2023-12-07T00:59:11;24.05;;;10.68;;
60014;SDS011;45867;52.480;6.056;2023-12-07T01:01:38;23.88;;;11.35;;
60014;SDS011;45867;52.480;6.056;2023-12-07T01:04:05;23.45;;;11.25;;
60014;SDS011;45867;52.480;6.056;2023-12-07T01:06:32;16.00;;;7.82;;
60014;SDS011;45867;52.480;6.056;2023-12-07T01:09:02;21.20;;;10.45;;
60014;SDS011;45867;52.480;6.056;2023-12-07T01:11:28;21.42;;;11.88;;
60014;SDS011;45867;52.480;6.056;2023-12-07T01:13:55;21.80;;;10.60;;
60014;SDS011;45867;52.480;6.056;2023-12-07T01:16:22;25.52;;;12.10;;
60014;SDS011;45867;52.480;6.056;2023-12-07T01:18:50;27.15;;;11.13;;
60014;SDS011;45867;52.480;6.056;2023-12-07T01:21:20;26.05;;;11.77;;
60014;SDS011;45867;52.480;6.056;2023-12-07T01:23:46;20.75;;;10.55;;
60014;SDS011;45867;52.480;6.056;2023-12-07T01:26:20;25.50;;;11.63;;
60014;SDS011;45867;52.480;6.056;2023-12-07T01:28:47;25.10;;;12.57;;
60014;SDS011;45867;52.480;6.056;2023-12-07T01:31:16;25.70;;;11.95;;
60014;SDS011;45867;52.480;6.056;2023-12-07T01:33:47;25.83;;;11.52;;
60014;SDS011;45867;52.480;6.056;2023-12-07T01:36:20;24.83;;;12.73;;
60014;SDS011;45867;52.480;6.056;2023-12-07T01:38:47;26.42;;;11.88;;
60014;SDS011;45867;52.480;6.056;2023-12-07T01:41:19;26.40;;;11.70;;
60014;SDS011;45867;52.480;6.056;2023-12-07T01:43:49;23.90;;;12.25;;
60014;SDS011;45867;52.480;6.056;2023-12-07T01:46:23;23.75;;;11.52;;
60014;SDS011;45867;52.480;6.056;2023-12-07T01:48:50;25.98;;;11.55;;
60014;SDS011;45867;52.480;6.056;2023-12-07T01:51:23;27.10;;;12.05;;
60014;SDS011;45867;52.480;6.056;2023-12-07T01:53:50;25.75;;;11.70;;
60014;SDS011;45867;52.480;6.056;2023-12-07T01:56:26;24.48;;;12.27;;
60014;SDS011;45867;52.480;6.056;2023-12-07T01:58:53;22.73;;;11.50;;
60014;SDS011;45867;52.480;6.056;2023-12-07T02:01:20;23.27;;;12.32;;
60014;SDS011;45867;52.480;6.056;2023-12-07T02:03:49;30.45;;;12.85;;
60014;SDS011;45867;52.480;6.056;2023-12-07T02:06:18;19.88;;;11.38;;
60014;SDS011;45867;52.480;6.056;2023-12-07T02:08:52;24.80;;;11.75;;
60014;SDS011;45867;52.480;6.056;2023-12-07T02:11:26;27.52;;;12.32;;
60014;SDS011;45867;52.480;6.056;2023-12-07T02:13:53;26.42;;;12.30;;
60014;SDS011;45867;52.480;6.056;2023-12-07T02:16:23;26.20;;;12.52;;
60014;SDS011;45867;52.480;6.056;2023-12-07T02:21:36;27.80;;;12.32;;
60014;SDS011;45867;52.480;6.056;2023-12-07T02:24:16;29.75;;;13.05;;
60014;SDS011;45867;52.480;6.056;2023-12-07T02:26:51;27.27;;;12.73;;
60014;SDS011;45867;52.480;6.056;2023-12-07T02:29:22;22.45;;;11.52;;
60014;SDS011;45867;52.480;6.056;2023-12-07T02:31:52;24.75;;;11.77;;
60014;SDS011;45867;52.480;6.056;2023-12-07T02:34:18;29.52;;;11.82;;
60014;SDS011;45867;52.480;6.056;2023-12-07T02:36:48;23.60;;;11.30;;
60014;SDS011;45867;52.480;6.056;2023-12-07T02:39:21;24.67;;;11.73;;
60014;SDS011;45867;52.480;6.056;2023-12-07T02:41:49;20.25;;;10.77;;
60014;SDS011;45867;52.480;6.056;2023-12-07T02:44:20;21.00;;;10.57;;
60014;SDS011;45867;52.480;6.056;2023-12-07T02:46:50;19.92;;;10.68;;
60014;SDS011;45867;52.480;6.056;2023-12-07T02:49:17;24.35;;;10.90;;
60014;SDS011;45867;52.480;6.056;2023-12-07T02:51:49;24.20;;;11.25;;
60014;SDS011;45867;52.480;6.056;2023-12-07T02:54:16;23.70;;;11.27;;
60014;SDS011;45867;52.480;6.056;2023-12-07T02:56:44;20.02;;;9.82;;
60014;SDS011;45867;52.480;6.056;2023-12-07T02:59:11;20.90;;;11.05;;
60014;SDS011;45867;52.480;6.056;2023-12-07T03:01:38;25.85;;;10.85;;
60014;SDS011;45867;52.480;6.056;2023-12-07T03:04:05;22.30;;;10.15;;
60014;SDS011;45867;52.480;6.056;2023-12-07T03:06:32;21.58;;;9.82;;
60014;SDS011;45867;52.480;6.056;2023-12-07T03:09:01;21.13;;;11.27;;
60014;SDS011;45867;52.480;6.056;2023-12-07T03:11:27;25.70;;;11.20;;
60014;SDS011;45867;52.480;6.056;2023-12-07T03:13:57;22.45;;;11.02;;
60014;SDS011;45867;52.480;6.056;2023-12-07T03:16:23;23.23;;;11.05;;
60014;SDS011;45867;52.480;6.056;2023-12-07T03:18:50;22.98;;;10.32;;
60014;SDS011;45867;52.480;6.056;2023-12-07T03:21:16;21.10;;;11.02;;
60014;SDS011;45867;52.480;6.056;2023-12-07T03:23:50;24.60;;;11.20;;
60014;SDS011;45867;52.480;6.056;2023-12-07T03:26:20;22.20;;;11.07;;
60014;SDS011;45867;52.480;6.056;2023-12-07T03:28:50;19.52;;;10.60;;
60014;SDS011;45867;52.480;6.056;2023-12-07T03:31:16;21.13;;;10.90;;
60014;SDS011;45867;52.480;6.056;2023-12-07T03:33:44;22.88;;;11.13;;
60014;SDS011;45867;52.480;6.056;2023-12-07T03:36:11;19.88;;;10.85;;
60014;SDS011;45867;52.480;6.056;2023-12-07T03:38:37;20.92;;;10.60;;
60014;SDS011;45867;52.480;6.056;2023-12-07T03:41:04;26.02;;;10.18;;
60014;SDS011;45867;52.480;6.056;2023-12-07T03:43:31;23.05;;;10.68;;
60014;SDS011;45867;52.480;6.056;2023-12-07T03:45:57;17.48;;;9.73;;
60014;SDS011;45867;52.480;6.056;2023-12-07T03:48:27;21.58;;;11.02;;
60014;SDS011;45867;52.480;6.056;2023-12-07T03:50:53;20.25;;;10.13;;
60014;SDS011;45867;52.480;6.056;2023-12-07T03:53:20;28.10;;;11.00;;
60014;SDS011;45867;52.480;6.056;2023-12-07T03:55:46;20.75;;;10.90;;
60014;SDS011;45867;52.480;6.056;2023-12-07T03:58:16;25.23;;;10.40;;
60014;SDS011;45867;52.480;6.056;2023-12-07T04:00:45;17.73;;;9.93;;
60014;SDS011;45867;52.480;6.056;2023-12-07T04:03:12;20.98;;;9.95;;
60014;SDS011;45867;52.480;6.056;2023-12-07T04:05:38;20.48;;;9.70;;
60014;SDS011;45867;52.480;6.056;2023-12-07T04:08:05;23.50;;;9.30;;
60014;SDS011;45867;52.480;6.056;2023-12-07T04:10:32;19.48;;;9.30;;
60014;SDS011;45867;52.480;6.056;2023-12-07T04:12:59;17.02;;;9.45;;
60014;SDS011;45867;52.480;6.056;2023-12-07T04:15:25;20.13;;;9.88;;
60014;SDS011;45867;52.480;6.056;2023-12-07T04:17:55;21.30;;;9.32;;
60014;SDS011;45867;52.480;6.056;2023-12-07T04:20:22;18.92;;;9.00;;
60014;SDS011;45867;52.480;6.056;2023-12-07T04:22:55;16.75;;;9.73;;
60014;SDS011;45867;52.480;6.056;2023-12-07T04:25:22;23.55;;;9.98;;
60014;SDS011;45867;52.480;6.056;2023-12-07T04:27:48;17.88;;;9.63;;
60014;SDS011;45867;52.480;6.056;2023-12-07T04:30:16;18.30;;;8.98;;
60014;SDS011;45867;52.480;6.056;2023-12-07T04:32:45;19.08;;;9.93;;
60014;SDS011;45867;52.480;6.056;2023-12-07T04:35:12;20.02;;;9.07;;
60014;SDS011;45867;52.480;6.056;2023-12-07T04:37:39;18.33;;;9.65;;
60014;SDS011;45867;52.480;6.056;2023-12-07T04:40:09;17.20;;;9.27;;
60014;SDS011;45867;52.480;6.056;2023-12-07T04:42:36;20.00;;;9.15;;
60014;SDS011;45867;52.480;6.056;2023-12-07T04:45:06;16.85;;;9.07;;
60014;SDS011;45867;52.480;6.056;2023-12-07T04:47:33;22.20;;;9.88;;
60014;SDS011;45867;52.480;6.056;2023-12-07T04:50:00;18.92;;;9.50;;
60014;SDS011;45867;52.480;6.056;2023-12-07T04:52:27;20.38;;;9.73;;
60014;SDS011;45867;52.480;6.056;2023-12-07T04:54:54;26.85;;;10.32;;
60014;SDS011;45867;52.480;6.056;2023-12-07T04:57:21;24.63;;;10.23;;
60014;SDS011;45867;52.480;6.056;2023-12-07T04:59:48;25.40;;;10.07;;
60014;SDS011;45867;52.480;6.056;2023-12-07T05:02:16;20.20;;;10.60;;
60014;SDS011;45867;52.480;6.056;2023-12-07T05:04:46;25.65;;;11.35;;
60014;SDS011;45867;52.480;6.056;2023-12-07T05:07:14;35.40;;;12.27;;
60014;SDS011;45867;52.480;6.056;2023-12-07T05:09:41;24.60;;;11.85;;
60014;SDS011;45867;52.480;6.056;2023-12-07T05:12:08;24.55;;;12.40;;
60014;SDS011;45867;52.480;6.056;2023-12-07T05:14:38;21.83;;;12.10;;
60014;SDS011;45867;52.480;6.056;2023-12-07T05:17:04;26.55;;;12.02;;
60014;SDS011;45867;52.480;6.056;2023-12-07T05:19:31;22.25;;;10.77;;
60014;SDS011;45867;52.480;6.056;2023-12-07T05:21:57;23.17;;;10.65;;
60014;SDS011;45867;52.480;6.056;2023-12-07T05:24:24;22.00;;;10.02;;
60014;SDS011;45867;52.480;6.056;2023-12-07T05:26:51;20.15;;;9.32;;
60014;SDS011;45867;52.480;6.056;2023-12-07T05:29:17;20.23;;;8.73;;
60014;SDS011;45867;52.480;6.056;2023-12-07T05:31:48;18.00;;;9.13;;
60014;SDS011;45867;52.480;6.056;2023-12-07T05:34:21;20.60;;;8.85;;
60014;SDS011;45867;52.480;6.056;2023-12-07T05:36:48;26.98;;;9.90;;
60014;SDS011;45867;52.480;6.056;2023-12-07T05:39:17;21.02;;;9.02;;
60014;SDS011;45867;52.480;6.056;2023-12-07T05:41:44;21.95;;;10.20;;
60014;SDS011;45867;52.480;6.056;2023-12-07T05:44:10;22.58;;;11.18;;
60014;SDS011;45867;52.480;6.056;2023-12-07T05:46:37;23.92;;;10.75;;
60014;SDS011;45867;52.480;6.056;2023-12-07T05:49:10;21.33;;;10.95;;
60014;SDS011;45867;52.480;6.056;2023-12-07T05:51:40;31.65;;;14.48;;
60014;SDS011;45867;52.480;6.056;2023-12-07T05:54:07;31.33;;;13.05;;
60014;SDS011;45867;52.480;6.056;2023-12-07T05:56:45;24.42;;;12.38;;
60014;SDS011;45867;52.480;6.056;2023-12-07T05:59:15;23.45;;;12.13;;
60014;SDS011;45867;52.480;6.056;2023-12-07T06:01:41;23.67;;;12.15;;
60014;SDS011;45867;52.480;6.056;2023-12-07T06:04:08;26.85;;;12.68;;
60014;SDS011;45867;52.480;6.056;2023-12-07T06:06:35;23.48;;;12.23;;
60014;SDS011;45867;52.480;6.056;2023-12-07T06:09:05;25.23;;;11.70;;
60014;SDS011;45867;52.480;6.056;2023-12-07T06:11:32;26.67;;;11.80;;
60014;SDS011;45867;52.480;6.056;2023-12-07T06:13:59;26.15;;;12.05;;
60014;SDS011;45867;52.480;6.056;2023-12-07T06:16:25;25.25;;;12.43;;
60014;SDS011;45867;52.480;6.056;2023-12-07T06:18:53;27.75;;;12.88;;
60014;SDS011;45867;52.480;6.056;2023-12-07T06:21:20;25.48;;;12.27;;
60014;SDS011;45867;52.480;6.056;2023-12-07T06:23:46;22.45;;;12.10;;
60014;SDS011;45867;52.480;6.056;2023-12-07T06:26:15;30.80;;;13.50;;
60014;SDS011;45867;52.480;6.056;2023-12-07T06:28:50;25.80;;;13.38;;
60014;SDS011;45867;52.480;6.056;2023-12-07T06:31:26;26.23;;;12.80;;
60014;SDS011;45867;52.480;6.056;2023-12-07T06:33:53;29.63;;;13.23;;
60014;SDS011;45867;52.480;6.056;2023-12-07T06:36:23;27.00;;;13.27;;
60014;SDS011;45867;52.480;6.056;2023-12-07T06:38:50;30.60;;;14.88;;
60014;SDS011;45867;52.480;6.056;2023-12-07T06:41:22;26.85;;;13.32;;
60014;SDS011;45867;52.480;6.056;2023-12-07T06:43:49;31.65;;;12.98;;
60014;SDS011;45867;52.480;6.056;2023-12-07T06:46:16;32.22;;;14.45;;
60014;SDS011;45867;52.480;6.056;2023-12-07T06:48:48;28.08;;;13.07;;
60014;SDS011;45867;52.480;6.056;2023-12-07T06:51:21;32.05;;;13.88;;
60014;SDS011;45867;52.480;6.056;2023-12-07T06:53:48;32.83;;;14.88;;
60014;SDS011;45867;52.480;6.056;2023-12-07T06:56:15;36.45;;;13.88;;
60014;SDS011;45867;52.480;6.056;2023-12-07T06:58:41;30.48;;;15.43;;
60014;SDS011;45867;52.480;6.056;2023-12-07T07:01:09;33.83;;;15.55;;
60014;SDS011;45867;52.480;6.056;2023-12-07T07:03:40;29.33;;;15.52;;
60014;SDS011;45867;52.480;6.056;2023-12-07T07:06:06;32.17;;;14.85;;
60014;SDS011;45867;52.480;6.056;2023-12-07T07:08:33;35.22;;;16.02;;
60014;SDS011;45867;52.480;6.056;2023-12-07T07:11:08;31.25;;;15.18;;
60014;SDS011;45867;52.480;6.056;2023-12-07T07:13:41;38.83;;;15.85;;
60014;SDS011;45867;52.480;6.056;2023-12-07T07:16:15;33.75;;;16.23;;
60014;SDS011;45867;52.480;6.056;2023-12-07T07:18:42;39.13;;;16.20;;
60014;SDS011;45867;52.480;6.056;2023-12-07T07:21:08;33.30;;;16.63;;
60014;SDS011;45867;52.480;6.056;2023-12-07T07:23:35;48.67;;;18.67;;
60014;SDS011;45867;52.480;6.056;2023-12-07T07:26:02;38.38;;;16.92;;
60014;SDS011;45867;52.480;6.056;2023-12-07T07:28:31;37.17;;;17.10;;
60014;SDS011;45867;52.480;6.056;2023-12-07T07:31:03;38.47;;;16.95;;
60014;SDS011;45867;52.480;6.056;2023-12-07T07:33:30;35.75;;;16.55;;
60014;SDS011;45867;52.480;6.056;2023-12-07T07:35:58;47.17;;;18.23;;
60014;SDS011;45867;52.480;6.056;2023-12-07T07:38:27;42.58;;;17.38;;
60014;SDS011;45867;52.480;6.056;2023-12-07T07:40:53;43.08;;;16.45;;
60014;SDS011;45867;52.480;6.056;2023-12-07T07:43:21;58.85;;;17.25;;
60014;SDS011;45867;52.480;6.056;2023-12-07T07:45:50;63.25;;;17.73;;
60014;SDS011;45867;52.480;6.056;2023-12-07T07:48:17;58.78;;;18.08;;
60014;SDS011;45867;52.480;6.056;2023-12-07T07:50:46;94.57;;;17.92;;
60014;SDS011;45867;52.480;6.056;2023-12-07T07:53:23;66.82;;;18.00;;
60014;SDS011;45867;52.480;6.056;2023-12-07T07:55:50;58.97;;;15.77;;
60014;SDS011;45867;52.480;6.056;2023-12-07T07:58:19;86.95;;;16.98;;
60014;SDS011;45867;52.480;6.056;2023-12-07T08:00:46;99.07;;;17.15;;
60014;SDS011;45867;52.480;6.056;2023-12-07T08:03:13;85.53;;;16.95;;
60014;SDS011;45867;52.480;6.056;2023-12-07T08:05:40;107.53;;;16.00;;
60014;SDS011;45867;52.480;6.056;2023-12-07T08:08:07;77.25;;;16.58;;
60014;SDS011;45867;52.480;6.056;2023-12-07T08:10:33;94.45;;;16.50;;
60014;SDS011;45867;52.480;6.056;2023-12-07T08:13:20;76.50;;;15.70;;
60014;SDS011;45867;52.480;6.056;2023-12-07T08:15:47;122.97;;;15.63;;
60014;SDS011;45867;52.480;6.056;2023-12-07T08:18:13;90.35;;;16.63;;
60014;SDS011;45867;52.480;6.056;2023-12-07T08:20:40;94.13;;;16.20;;
60014;SDS011;45867;52.480;6.056;2023-12-07T08:23:07;83.30;;;15.25;;
60014;SDS011;45867;52.480;6.056;2023-12-07T08:25:39;148.65;;;15.85;;
60014;SDS011;45867;52.480;6.056;2023-12-07T08:28:06;59.10;;;14.63;;
60014;SDS011;45867;52.480;6.056;2023-12-07T08:30:33;61.30;;;14.32;;
60014;SDS011;45867;52.480;6.056;2023-12-07T08:33:00;84.97;;;15.23;;
60014;SDS011;45867;52.480;6.056;2023-12-07T08:35:26;76.95;;;16.00;;
60014;SDS011;45867;52.480;6.056;2023-12-07T08:37:56;96.05;;;17.33;;
60014;SDS011;45867;52.480;6.056;2023-12-07T08:40:22;52.97;;;15.45;;
60014;SDS011;45867;52.480;6.056;2023-12-07T08:42:49;45.83;;;15.75;;
60014;SDS011;45867;52.480;6.056;2023-12-07T08:45:18;75.65;;;17.70;;
60014;SDS011;45867;52.480;6.056;2023-12-07T08:47:48;51.83;;;17.77;;
60014;SDS011;45867;52.480;6.056;2023-12-07T08:50:17;84.57;;;16.27;;
60014;SDS011;45867;52.480;6.056;2023-12-07T08:52:45;77.55;;;17.42;;
60014;SDS011;45867;52.480;6.056;2023-12-07T08:55:21;100.53;;;17.67;;
60014;SDS011;45867;52.480;6.056;2023-12-07T08:57:50;107.03;;;18.88;;
60014;SDS011;45867;52.480;6.056;2023-12-07T09:00:19;106.78;;;18.45;;
60014;SDS011;45867;52.480;6.056;2023-12-07T09:02:48;104.78;;;17.52;;
60014;SDS011;45867;52.480;6.056;2023-12-07T09:05:15;69.63;;;19.83;;
60014;SDS011;45867;52.480;6.056;2023-12-07T09:07:42;123.32;;;19.27;;
60014;SDS011;45867;52.480;6.056;2023-12-07T09:10:09;61.78;;;19.05;;
60014;SDS011;45867;52.480;6.056;2023-12-07T09:12:36;107.93;;;19.92;;
60014;SDS011;45867;52.480;6.056;2023-12-07T09:15:08;101.05;;;22.50;;
60014;SDS011;45867;52.480;6.056;2023-12-07T09:17:35;142.60;;;22.13;;
60014;SDS011;45867;52.480;6.056;2023-12-07T09:20:06;101.97;;;20.25;;
60014;SDS011;45867;52.480;6.056;2023-12-07T09:22:36;138.00;;;22.50;;
60014;SDS011;45867;52.480;6.056;2023-12-07T09:25:03;119.47;;;22.80;;
60014;SDS011;45867;52.480;6.056;2023-12-07T09:27:31;109.90;;;22.63;;
60014;SDS011;45867;52.480;6.056;2023-12-07T09:29:57;49.25;;;15.10;;
60014;SDS011;45867;52.480;6.056;2023-12-07T09:32:25;93.53;;;18.00;;
60014;SDS011;45867;52.480;6.056;2023-12-07T09:35:03;113.97;;;22.67;;
60014;SDS011;45867;52.480;6.056;2023-12-07T09:37:30;92.03;;;22.55;;
60014;SDS011;45867;52.480;6.056;2023-12-07T09:39:57;86.07;;;18.58;;
60014;SDS011;45867;52.480;6.056;2023-12-07T09:42:24;143.68;;;22.98;;
60014;SDS011;45867;52.480;6.056;2023-12-07T09:44:59;132.40;;;22.55;;
60014;SDS011;45867;52.480;6.056;2023-12-07T09:47:28;145.68;;;20.27;;
60014;SDS011;45867;52.480;6.056;2023-12-07T09:50:03;138.35;;;21.45;;
60014;SDS011;45867;52.480;6.056;2023-12-07T09:52:40;111.95;;;22.05;;
60014;SDS011;45867;52.480;6.056;2023-12-07T09:55:19;84.63;;;21.75;;
60014;SDS011;45867;52.480;6.056;2023-12-07T09:57:50;181.93;;;29.10;;
60014;SDS011;45867;52.480;6.056;2023-12-07T10:00:20;102.63;;;24.02;;
60014;SDS011;45867;52.480;6.056;2023-12-07T10:02:50;124.25;;;22.67;;
60014;SDS011;45867;52.480;6.056;2023-12-07T10:05:20;182.95;;;21.27;;
60014;SDS011;45867;52.480;6.056;2023-12-07T10:07:54;124.47;;;22.25;;
60014;SDS011;45867;52.480;6.056;2023-12-07T10:10:20;134.93;;;23.15;;
60014;SDS011;45867;52.480;6.056;2023-12-07T10:15:22;86.18;;;21.25;;
60014;SDS011;45867;52.480;6.056;2023-12-07T10:17:51;76.82;;;18.55;;
60014;SDS011;45867;52.480;6.056;2023-12-07T10:20:22;84.05;;;21.40;;
60014;SDS011;45867;52.480;6.056;2023-12-07T10:23:02;87.35;;;22.65;;
60014;SDS011;45867;52.480;6.056;2023-12-07T10:28:23;85.47;;;22.23;;
60014;SDS011;45867;52.480;6.056;2023-12-07T10:30:53;132.07;;;23.77;;
60014;SDS011;45867;52.480;6.056;2023-12-07T10:33:22;117.10;;;22.17;;
60014;SDS011;45867;52.480;6.056;2023-12-07T10:35:49;103.32;;;22.45;;
60014;SDS011;45867;52.480;6.056;2023-12-07T10:38:16;79.65;;;21.55;;
60014;SDS011;45867;52.480;6.056;2023-12-07T10:40:46;85.68;;;23.95;;
60014;SDS011;45867;52.480;6.056;2023-12-07T10:43:13;66.85;;;20.17;;
60014;SDS011;45867;52.480;6.056;2023-12-07T10:45:42;79.65;;;20.73;;
60014;SDS011;45867;52.480;6.056;2023-12-07T10:48:15;80.82;;;21.70;;
60014;SDS011;45867;52.480;6.056;2023-12-07T10:50:50;77.35;;;19.92;;
60014;SDS011;45867;52.480;6.056;2023-12-07T10:53:28;80.90;;;19.50;;
60014;SDS011;45867;52.480;6.056;2023-12-07T10:56:01;85.50;;;20.85;;
60014;SDS011;45867;52.480;6.056;2023-12-07T10:58:28;62.28;;;18.33;;
60014;SDS011;45867;52.480;6.056;2023-12-07T11:00:59;85.10;;;20.80;;
60014;SDS011;45867;52.480;6.056;2023-12-07T11:03:31;60.60;;;15.70;;
60014;SDS011;45867;52.480;6.056;2023-12-07T11:05:58;39.08;;;11.63;;
60014;SDS011;45867;52.480;6.056;2023-12-07T11:10:56;56.17;;;19.75;;
60014;SDS011;45867;52.480;6.056;2023-12-07T11:13:31;68.43;;;21.40;;
60014;SDS011;45867;52.480;6.056;2023-12-07T11:16:25;102.03;;;20.73;;
60014;SDS011;45867;52.480;6.056;2023-12-07T11:22:00;100.30;;;20.70;;
60014;SDS011;45867;52.480;6.056;2023-12-07T11:24:35;109.03;;;21.20;;
60014;SDS011;45867;52.480;6.056;2023-12-07T11:27:01;102.35;;;23.05;;
60014;SDS011;45867;52.480;6.056;2023-12-07T11:29:31;82.80;;;19.38;;
60014;SDS011;45867;52.480;6.056;2023-12-07T11:32:02;70.60;;;19.30;;
60014;SDS011;45867;52.480;6.056;2023-12-07T11:34:42;66.75;;;17.13;;
60014;SDS011;45867;52.480;6.056;2023-12-07T11:37:10;53.85;;;13.73;;
60014;SDS011;45867;52.480;6.056;2023-12-07T11:39:40;60.55;;;19.27;;
60014;SDS011;45867;52.480;6.056;2023-12-07T11:42:17;58.08;;;18.27;;
60014;SDS011;45867;52.480;6.056;2023-12-07T11:44:52;33.63;;;10.63;;
60014;SDS011;45867;52.480;6.056;2023-12-07T11:47:21;67.47;;;18.98;;
60014;SDS011;45867;52.480;6.056;2023-12-07T11:49:49;47.78;;;17.05;;
60014;SDS011;45867;52.480;6.056;2023-12-07T11:52:17;59.03;;;20.85;;
60014;SDS011;45867;52.480;6.056;2023-12-07T11:54:50;68.13;;;21.10;;
60014;SDS011;45867;52.480;6.056;2023-12-07T11:57:20;56.65;;;18.58;;
60014;SDS011;45867;52.480;6.056;2023-12-07T11:59:51;78.95;;;21.88;;
60014;SDS011;45867;52.480;6.056;2023-12-07T12:02:18;61.15;;;21.83;;
60014;SDS011;45867;52.480;6.056;2023-12-07T12:04:46;58.42;;;21.40;;
60014;SDS011;45867;52.480;6.056;2023-12-07T12:07:16;72.75;;;24.17;;
60014;SDS011;45867;52.480;6.056;2023-12-07T12:09:44;59.95;;;23.42;;
60014;SDS011;45867;52.480;6.056;2023-12-07T12:12:11;77.60;;;24.70;;
60014;SDS011;45867;52.480;6.056;2023-12-07T12:14:37;57.25;;;22.00;;
60014;SDS011;45867;52.480;6.056;2023-12-07T12:17:04;69.50;;;22.48;;
60014;SDS011;45867;52.480;6.056;2023-12-07T12:19:32;60.78;;;21.35;;
60014;SDS011;45867;52.480;6.056;2023-12-07T12:22:01;58.97;;;19.63;;
60014;SDS011;45867;52.480;6.056;2023-12-07T12:24:37;48.53;;;18.70;;
60014;SDS011;45867;52.480;6.056;2023-12-07T12:27:04;46.63;;;18.98;;
60014;SDS011;45867;52.480;6.056;2023-12-07T12:29:32;56.55;;;17.77;;
60014;SDS011;45867;52.480;6.056;2023-12-07T12:32:02;53.88;;;18.20;;
60014;SDS011;45867;52.480;6.056;2023-12-07T12:34:33;52.03;;;18.75;;
60014;SDS011;45867;52.480;6.056;2023-12-07T12:39:30;46.67;;;17.38;;
60014;SDS011;45867;52.480;6.056;2023-12-07T12:42:00;40.63;;;15.57;;
60014;SDS011;45867;52.480;6.056;2023-12-07T12:44:34;34.25;;;13.88;;
60014;SDS011;45867;52.480;6.056;2023-12-07T12:47:09;43.25;;;14.73;;
60014;SDS011;45867;52.480;6.056;2023-12-07T12:49:37;40.22;;;13.90;;
60014;SDS011;45867;52.480;6.056;2023-12-07T12:52:10;36.00;;;12.85;;
60014;SDS011;45867;52.480;6.056;2023-12-07T12:54:38;30.60;;;11.40;;
60014;SDS011;45867;52.480;6.056;2023-12-07T12:57:06;36.20;;;12.75;;
60014;SDS011;45867;52.480;6.056;2023-12-07T12:59:34;35.40;;;12.27;;
60014;SDS011;45867;52.480;6.056;2023-12-07T13:02:02;45.63;;;15.23;;
60014;SDS011;45867;52.480;6.056;2023-12-07T13:04:36;39.83;;;15.80;;
60014;SDS011;45867;52.480;6.056;2023-12-07T13:07:07;44.92;;;16.88;;
60014;SDS011;45867;52.480;6.056;2023-12-07T13:09:38;47.15;;;16.67;;
60014;SDS011;45867;52.480;6.056;2023-12-07T13:12:05;43.80;;;15.63;;
60014;SDS011;45867;52.480;6.056;2023-12-07T13:14:32;37.97;;;14.35;;
60014;SDS011;45867;52.480;6.056;2023-12-07T13:16:59;50.72;;;16.45;;
60014;SDS011;45867;52.480;6.056;2023-12-07T13:19:27;44.90;;;16.48;;
60014;SDS011;45867;52.480;6.056;2023-12-07T13:21:54;51.97;;;17.35;;
60014;SDS011;45867;52.480;6.056;2023-12-07T13:24:21;45.33;;;16.52;;
60014;SDS011;45867;52.480;6.056;2023-12-07T13:26:48;45.88;;;17.88;;
60014;SDS011;45867;52.480;6.056;2023-12-07T13:29:21;51.65;;;17.80;;
60014;SDS011;45867;52.480;6.056;2023-12-07T13:32:00;56.20;;;17.58;;
60014;SDS011;45867;52.480;6.056;2023-12-07T13:34:27;44.08;;;14.95;;
60014;SDS011;45867;52.480;6.056;2023-12-07T13:36:54;42.58;;;15.75;;
60014;SDS011;45867;52.480;6.056;2023-12-07T13:39:20;49.85;;;16.02;;
60014;SDS011;45867;52.480;6.056;2023-12-07T13:41:56;44.92;;;17.17;;
60014;SDS011;45867;52.480;6.056;2023-12-07T13:44:29;52.72;;;18.88;;
60014;SDS011;45867;52.480;6.056;2023-12-07T13:46:55;47.58;;;18.05;;
60014;SDS011;45867;52.480;6.056;2023-12-07T13:49:22;52.25;;;18.17;;
60014;SDS011;45867;52.480;6.056;2023-12-07T13:51:59;53.72;;;19.48;;
60014;SDS011;45867;52.480;6.056;2023-12-07T13:54:33;56.50;;;20.58;;
60014;SDS011;45867;52.480;6.056;2023-12-07T13:57:21;60.42;;;21.25;;
60014;SDS011;45867;52.480;6.056;2023-12-07T13:59:49;52.78;;;19.27;;
60014;SDS011;45867;52.480;6.056;2023-12-07T14:02:20;57.20;;;17.70;;
60014;SDS011;45867;52.480;6.056;2023-12-07T14:04:50;53.20;;;19.77;;
60014;SDS011;45867;52.480;6.056;2023-12-07T14:07:21;61.55;;;22.00;;
60014;SDS011;45867;52.480;6.056;2023-12-07T14:09:51;55.15;;;19.63;;
60014;SDS011;45867;52.480;6.056;2023-12-07T14:12:24;58.92;;;20.42;;
60014;SDS011;45867;52.480;6.056;2023-12-07T14:14:58;63.10;;;20.98;;
60014;SDS011;45867;52.480;6.056;2023-12-07T14:17:34;51.40;;;19.45;;
60014;SDS011;45867;52.480;6.056;2023-12-07T14:20:12;47.53;;;18.00;;
60014;SDS011;45867;52.480;6.056;2023-12-07T14:23:02;52.72;;;18.73;;
60014;SDS011;45867;52.480;6.056;2023-12-07T14:25:38;48.55;;;18.90;;
60014;SDS011;45867;52.480;6.056;2023-12-07T14:28:05;45.65;;;17.17;;
60014;SDS011;45867;52.480;6.056;2023-12-07T14:30:31;52.45;;;19.40;;
60014;SDS011;45867;52.480;6.056;2023-12-07T14:33:06;46.92;;;17.20;;
60014;SDS011;45867;52.480;6.056;2023-12-07T14:35:34;58.47;;;20.55;;
60014;SDS011;45867;52.480;6.056;2023-12-07T14:38:02;55.58;;;19.00;;
60014;SDS011;45867;52.480;6.056;2023-12-07T14:40:31;53.15;;;19.13;;
60014;SDS011;45867;52.480;6.056;2023-12-07T14:43:00;61.67;;;20.70;;
60014;SDS011;45867;52.480;6.056;2023-12-07T14:45:28;48.90;;;18.17;;
60014;SDS011;45867;52.480;6.056;2023-12-07T14:47:58;62.80;;;22.63;;
60014;SDS011;45867;52.480;6.056;2023-12-07T14:50:25;66.65;;;22.67;;